Fesco Vladimir — 5BSL2 — position and weather

sailwx.info

Track history (hours):
 
Tides and Currents Weather Stations Pressure Air Temp Water Temp Dewpoint Dewpoint Depression Visibility Wind Speed Wind Dir Waves Ship Positions

Fesco Vladimir

Last reported at 2015-Jul-30 09:33 UTC. Time now 2015-Aug-04 15:57 UTC.
Position N 36°45' W 075°39'.

Length 184 m; draft 8 m.

Type: Ship. MMSI: 209777000.

Date/timePositionNaut miles runAvg speedWind from/ knotsBaromVisibWave heightAir tempDewpointWater temp
2015-Jul-30 09:33N 36°45' W 075°39'4214.0
2015-Jul-30 06:33N 37°22' W 076°05'1616.0
2015-Jul-30 05:33N 37°37' W 076°06'1615.6
2015-Jul-30 04:34N 37°53' W 076°10'1616.1
2015-Jul-30 03:34N 38°09' W 076°14'4216.7
2015-Jul-30 01:05N 38°49' W 076°25'917.7
2015-Jul-30 00:33N 38°59' W 076°23'1313.5
2015-Jul-29 23:33N 39°11' W 076°28'5 2.7
2015-Jul-29 21:33N 39°15' W 076°33'0 0.0
2015-Jul-29 20:33N 39°15' W 076°33'0 0.0
2015-Jul-29 19:33N 39°15' W 076°33'0 0.0
2015-Jul-29 18:33N 39°15' W 076°33'0 0.0
2015-Jul-29 17:33N 39°15' W 076°33'0 0.0
2015-Jul-29 16:33N 39°15' W 076°33'0 0.0
2015-Jul-29 15:33N 39°15' W 076°33'0 0.4
2015-Jul-29 14:33N 39°15' W 076°33'8 7.9
2015-Jul-29 13:33N 39°09' W 076°25'1413.6
2015-Jul-29 12:34N 38°56' W 076°23'1817.6
2015-Jul-29 11:34N 38°38' W 076°25'1717.1
2015-Jul-29 10:33N 38°22' W 076°19'1817.6
2015-Jul-29 09:32N 38°04' W 076°13'2217.1
2015-Jul-29 08:14N 37°42' W 076°11'1216.8
2015-Jul-29 07:33N 37°33' W 076°02'4711.6
2015-Jul-29 03:31N 36°52' W 075°33'1414.4
2015-Jul-29 02:33N 36°56' W 075°17'1514.7
2015-Jul-29 01:33N 36°60' W 074°59'1514.9
2015-Jul-29 00:34N 37°03' W 074°41'13912.4
2015-Jul-28 13:22N 39°18' W 073°58'1215.3
2015-Jul-28 12:33N 39°30' W 073°55'1515.2
2015-Jul-28 11:33N 39°45' W 073°52'1515.2
2015-Jul-28 10:33N 39°60' W 073°51'1615.3
2015-Jul-28 09:32N 40°16' W 073°49'1212.7
2015-Jul-28 08:33N 40°28' W 073°52'1414.1
2015-Jul-28 07:34N 40°39' W 074°03'5 4.6
2015-Jul-28 06:31N 40°41' W 074°09'0 0.0
2015-Jul-28 05:31N 40°41' W 074°09'0 0.0
2015-Jul-28 04:31N 40°41' W 074°09'0 0.0
2015-Jul-28 03:31N 40°41' W 074°09'0 0.0
2015-Jul-28 02:31N 40°41' W 074°09'0 0.0
2015-Jul-28 01:31N 40°41' W 074°09'0 0.0
2015-Jul-28 00:28N 40°41' W 074°09'0 0.0
2015-Jul-27 23:31N 40°41' W 074°09'0 0.0
2015-Jul-27 22:31N 40°41' W 074°09'0 0.0
2015-Jul-27 21:31N 40°41' W 074°09'0 0.0
2015-Jul-27 20:31N 40°41' W 074°09'0 0.0
2015-Jul-27 19:31N 40°41' W 074°09'0 0.0
2015-Jul-27 18:28N 40°41' W 074°09'0 0.0
2015-Jul-27 17:31N 40°41' W 074°09'0 0.0
2015-Jul-27 16:31N 40°41' W 074°09'0 0.0
2015-Jul-27 15:31N 40°41' W 074°09'0 0.0
2015-Jul-27 14:31N 40°41' W 074°09'0 0.0
2015-Jul-27 13:28N 40°41' W 074°09'0 0.0
2015-Jul-27 12:31N 40°41' W 074°09'0 0.0
2015-Jul-27 11:28N 40°41' W 074°09'0 0.2
2015-Jul-27 10:33N 40°41' W 074°09'5 4.6
2015-Jul-27 09:33N 40°39' W 074°03'1010.2
2015-Jul-27 08:33N 40°30' W 073°56'1312.7
2015-Jul-27 07:33N 40°28' W 073°40'1616.3
2015-Jul-27 06:33N 40°29' W 073°19'1916.9
2015-Jul-27 05:27N 40°30' W 072°54'1517.0
2015-Jul-27 04:34N 40°30' W 072°34'1716.8
2015-Jul-27 03:33N 40°31' W 072°12'1716.7
2015-Jul-27 02:33N 40°31' W 071°50'1716.7
2015-Jul-27 01:33N 40°31' W 071°28'1716.9
2015-Jul-27 00:31N 40°32' W 071°05'  
Track history (hours):
 
Tides and Currents Weather Stations Pressure Air Temp Water Temp Dewpoint Dewpoint Depression Visibility Wind Speed Wind Dir Waves Ship Positions

Fesco Vladimir

Last reported at 2015-Jul-30 09:33 UTC. Time now 2015-Aug-04 15:57 UTC.
Position N 36°45' W 075°39'.

Length 184 m; draft 8 m.

Type: Ship. MMSI: 209777000.

Date/timePositionNaut miles runAvg speedWind from/ knotsBaromVisibWave heightAir tempDewpointWater temp
2015-Jul-30 09:33N 36°45' W 075°39'4214.0
2015-Jul-30 06:33N 37°22' W 076°05'1616.0
2015-Jul-30 05:33N 37°37' W 076°06'1615.6
2015-Jul-30 04:34N 37°53' W 076°10'1616.1
2015-Jul-30 03:34N 38°09' W 076°14'4216.7
2015-Jul-30 01:05N 38°49' W 076°25'917.7
2015-Jul-30 00:33N 38°59' W 076°23'1313.5
2015-Jul-29 23:33N 39°11' W 076°28'5 2.7
2015-Jul-29 21:33N 39°15' W 076°33'0 0.0
2015-Jul-29 20:33N 39°15' W 076°33'0 0.0
2015-Jul-29 19:33N 39°15' W 076°33'0 0.0
2015-Jul-29 18:33N 39°15' W 076°33'0 0.0
2015-Jul-29 17:33N 39°15' W 076°33'0 0.0
2015-Jul-29 16:33N 39°15' W 076°33'0 0.0
2015-Jul-29 15:33N 39°15' W 076°33'0 0.4
2015-Jul-29 14:33N 39°15' W 076°33'8 7.9
2015-Jul-29 13:33N 39°09' W 076°25'1413.6
2015-Jul-29 12:34N 38°56' W 076°23'1817.6
2015-Jul-29 11:34N 38°38' W 076°25'1717.1
2015-Jul-29 10:33N 38°22' W 076°19'1817.6
2015-Jul-29 09:32N 38°04' W 076°13'2217.1
2015-Jul-29 08:14N 37°42' W 076°11'1216.8
2015-Jul-29 07:33N 37°33' W 076°02'4711.6
2015-Jul-29 03:31N 36°52' W 075°33'1414.4
2015-Jul-29 02:33N 36°56' W 075°17'1514.7
2015-Jul-29 01:33N 36°60' W 074°59'1514.9
2015-Jul-29 00:34N 37°03' W 074°41'13912.4
2015-Jul-28 13:22N 39°18' W 073°58'1215.3
2015-Jul-28 12:33N 39°30' W 073°55'1515.2
2015-Jul-28 11:33N 39°45' W 073°52'1515.2
2015-Jul-28 10:33N 39°60' W 073°51'1615.3
2015-Jul-28 09:32N 40°16' W 073°49'1212.7
2015-Jul-28 08:33N 40°28' W 073°52'1414.1
2015-Jul-28 07:34N 40°39' W 074°03'5 4.6
2015-Jul-28 06:31N 40°41' W 074°09'0 0.0
2015-Jul-28 05:31N 40°41' W 074°09'0 0.0
2015-Jul-28 04:31N 40°41' W 074°09'0 0.0
2015-Jul-28 03:31N 40°41' W 074°09'0 0.0
2015-Jul-28 02:31N 40°41' W 074°09'0 0.0
2015-Jul-28 01:31N 40°41' W 074°09'0 0.0
2015-Jul-28 00:28N 40°41' W 074°09'0 0.0
2015-Jul-27 23:31N 40°41' W 074°09'0 0.0
2015-Jul-27 22:31N 40°41' W 074°09'0 0.0
2015-Jul-27 21:31N 40°41' W 074°09'0 0.0
2015-Jul-27 20:31N 40°41' W 074°09'0 0.0
2015-Jul-27 19:31N 40°41' W 074°09'0 0.0
2015-Jul-27 18:28N 40°41' W 074°09'0 0.0
2015-Jul-27 17:31N 40°41' W 074°09'0 0.0
2015-Jul-27 16:31N 40°41' W 074°09'0 0.0
2015-Jul-27 15:31N 40°41' W 074°09'0 0.0
2015-Jul-27 14:31N 40°41' W 074°09'0 0.0
2015-Jul-27 13:28N 40°41' W 074°09'0 0.0
2015-Jul-27 12:31N 40°41' W 074°09'0 0.0
2015-Jul-27 11:28N 40°41' W 074°09'0 0.2
2015-Jul-27 10:33N 40°41' W 074°09'5 4.6
2015-Jul-27 09:33N 40°39' W 074°03'1010.2
2015-Jul-27 08:33N 40°30' W 073°56'1312.7
2015-Jul-27 07:33N 40°28' W 073°40'1616.3
2015-Jul-27 06:33N 40°29' W 073°19'1916.9
2015-Jul-27 05:27N 40°30' W 072°54'1517.0
2015-Jul-27 04:34N 40°30' W 072°34'1716.8
2015-Jul-27 03:33N 40°31' W 072°12'1716.7
2015-Jul-27 02:33N 40°31' W 071°50'1716.7
2015-Jul-27 01:33N 40°31' W 071°28'1716.9
2015-Jul-27 00:31N 40°32' W 071°05'  

Dump ship's entire track history